CheckWX is a tool to help pilots better visualize weather data.  It is not intended as a substitute for an official pre-flight weather briefing.

10:25:15 UTC

7W6 METAR
Hyde County Airport
Engelhard, North Carolina, USA
Current

25 mins ago

K7W6 261000Z AUTO 01016G23KT 10SM RA OVC008 08/07 A2994 RMK AO2 T00800066
Observed
Mar-26 @ 10:00 UTC
Wind
  • 010° at 16 KTS
  • Gusting to 23 KTS
Visibility
10 SM
Flight Rules
IFR
Conditions
Rain
Cloud Levels
  • Overcast at 800' AGL
Temperature
C / 46°F
Dewpoint
C / 45°F
Humidity
93%
Altimeter
29.94" Hg
Pressure
1013.92 hPa
Previous

45 mins ago

K7W6 260940Z AUTO 36015G24KT 10SM OVC006 08/07 A2993 RMK AO2 T00810069
Observed
Mar-26 @ 09:40 UTC
Wind
  • 360° at 15 KTS
  • Gusting to 24 KTS
Visibility
10 SM
Flight Rules
IFR
Cloud Levels
  • Overcast at 600' AGL
Temperature
C / 46°F
Dewpoint
C / 45°F
Humidity
93%
Altimeter
29.93" Hg
Pressure
1013.52 hPa
Previous

1 hour ago

K7W6 260920Z AUTO 01017G23KT 10SM OVC006 09/07 A2991 RMK AO2 T00850074
Observed
Mar-26 @ 09:20 UTC
Wind
  • 010° at 17 KTS
  • Gusting to 23 KTS
Visibility
10 SM
Flight Rules
IFR
Cloud Levels
  • Overcast at 600' AGL
Temperature
C / 48°F
Dewpoint
C / 45°F
Humidity
87%
Altimeter
29.91" Hg
Pressure
1012.92 hPa